Earlmount, Washington
Current Conditions -  °F | °C
As of 8:53 PM on Friday 21 Nov 2014 (Local Time) from KBFI Reporting Station
Broken Clouds Broken Clouds  
Wind Chill: 53°   Ceiling: 1600
Heat Index: 53°   Visibility: 10mi
Dew Point: 46°   Wind: 18mph
Humidity: 77%   Direction: 180°S
Pressure: 29.38"   Gusts: 33mph
Location:  47.6833°N, 122.123°W
Report Text: KBFI 220453Z 18016G29KT 10SM BKN016 BKN120 12/08 A2938 RMK AO2 PK WND 20029/0446 SLP949 T01170078
Loading
Personal Weather Stations






























Interactive Weather Map New forecast layout! Learn more

10-Day Weather Forecast

Advertisements
Track Severe Weather on mobile